Terminal Aerodrome Forecast
Issued by NWS Wilmington, OH

Current Version | Previous Version | Text Only | Print | Product List | Glossary Off
Versions: 1 2 3 4 5 6 7 8 9 10 11 12 13 14 15 16 17 18 19 20 21 22 23 24 25 26 27

000
FTUS41 KILN 201607 AAD
TAFCVG
TAF AMD
KCVG 201607Z 2016/2118 08007KT 5SM BR OVC005
      TEMPO 2016/2017 2SM BR BKN008
     FM201700 11005KT P6SM FEW015 SCT040
      TEMPO 2017/2019 BKN015
     FM201900 16005KT P6SM VCSH BKN050 BKN200
      TEMPO 2020/2022 3SM -TSRA BR BKN025CB OVC050
     FM211000 20006KT P6SM -SHRA VCTS SCT020CB OVC090=

USA.gov is the U.S. government's official web portal to all federal, state and local government web resources and services.